CRP2 weather

R.M. of Pipestone Airport
Reston, Manitoba, Canada

Public forecast

Using degrees Celsius for public forecast. Weather courtesy of forecast.io.

Closest aviation weather report (METAR) to R.M. of Pipestone Airport

Closest report is Brandon Municipal Airport, 47.1 nm (87.2 km) ENE. Retrieved 2019/12/12 21:00 UTC (10 minutes ago):

CYBR 122100Z 11008KT 15SM -SN BKN045 M16/M20 A3004 RMK SC7 SLP219

Closest aviation forecast (TAF) to R.M. of Pipestone Airport

Closest forecast is Brandon Municipal Airport, 47.1 nm (87.2 km) ENE. Retrieved 2019/12/12 18:45 UTC (2 hours ago):

TAF TAF CYBR 121741Z 1218/1306 10010KT P6SM FEW025 SCT080 BKN250 TEMPO 1218/1220 5SM -SN BKN020 BKN080 OVC250 FM122000 11012KT P6SM -SN SCT020 OVC040 TEMPO 1220/1304 2SM -SN OVC020 FM130400 11010KT 11/2SM -SN VV012 TEMPO 1304/1306 3SM -SN OVC025 RMK NXT FCST BY 130000Z